Terminal Aerodrome Forecast
Issued by NWS

Home | Current Version | Previous Version | Graphics & Text | Print | Product List | Glossary On
Versions: 1 2 3 4 5 6 7 8 9 10 11 12
000
FTUS45 KGGW 192320
TAFGDV
TAF
KGDV 192320Z 2000/2024 26007KT P6SM BKN100
     FM200600 25007KT 4SM BR BKN035
     FM201200 24009KT P6SM FEW160=

USA.gov is the U.S. government's official web portal to all federal, state and local government web resources and services.